createdAt,value
2022-09-03T00:01:15.771Z,0.60
2022-09-03T00:03:45.083Z,0.52
2022-09-03T00:06:15.981Z,0.47
2022-09-03T00:08:45.870Z,0.60
2022-09-03T00:11:17.634Z,0.40
2022-09-03T00:13:47.344Z,0.65
2022-09-03T00:16:18.412Z,0.50
2022-09-03T00:18:48.694Z,0.55
2022-09-03T00:21:17.332Z,0.63
2022-09-03T00:23:45.999Z,0.40
2022-09-03T00:26:25.726Z,0.52
2022-09-03T00:28:59.117Z,0.70
2022-09-03T00:31:33.558Z,0.60
2022-09-03T00:34:03.814Z,0.65
2022-09-03T00:36:35.568Z,0.50
2022-09-03T00:39:03.670Z,0.65
2022-09-03T00:41:35.149Z,0.65
2022-09-03T00:44:16.920Z,0.47
2022-09-03T00:46:48.373Z,0.50
2022-09-03T00:49:25.904Z,0.50
2022-09-03T00:51:58.346Z,0.50
2022-09-03T00:54:30.378Z,0.50
2022-09-03T00:57:06.211Z,0.50
2022-09-03T00:59:36.992Z,0.63
2022-09-03T01:02:11.862Z,0.50
2022-09-03T01:04:45.558Z,0.50
2022-09-03T01:07:16.071Z,0.50
2022-09-03T01:09:49.938Z,0.50
2022-09-03T01:12:23.073Z,0.60
2022-09-03T01:14:58.037Z,0.50
2022-09-03T01:17:34.128Z,0.60
2022-09-03T01:20:14.451Z,0.55
2022-09-03T01:22:58.817Z,0.60
2022-09-03T01:25:33.530Z,0.60
2022-09-03T01:28:13.608Z,0.57
2022-09-03T01:30:42.701Z,0.40
2022-09-03T01:33:13.648Z,0.50
2022-09-03T01:35:45.402Z,0.50
2022-09-03T01:38:18.724Z,0.60
2022-09-03T01:40:50.866Z,0.50
2022-09-03T01:43:36.863Z,0.47
2022-09-03T01:46:06.624Z,0.60
2022-09-03T01:48:46.275Z,0.60
2022-09-03T01:51:23.627Z,0.60
2022-09-03T01:54:21.815Z,0.50
2022-09-03T01:57:24.254Z,0.50
2022-09-03T02:00:06.789Z,0.40
2022-09-03T02:02:36.046Z,0.50
2022-09-03T02:05:08.046Z,0.52
2022-09-03T02:07:36.977Z,0.50
2022-09-03T02:10:06.808Z,0.57
2022-09-03T02:12:35.600Z,0.70
2022-09-03T02:15:06.616Z,0.60
2022-09-03T02:17:34.670Z,0.55
2022-09-03T02:20:05.110Z,0.50
2022-09-03T02:22:33.285Z,0.57
2022-09-03T02:25:01.251Z,0.65
2022-09-03T02:27:29.384Z,0.43
2022-09-03T02:29:58.164Z,0.50
2022-09-03T02:32:28.171Z,0.50
2022-09-03T02:34:56.211Z,0.65
2022-09-03T02:37:24.354Z,0.52
2022-09-03T02:39:53.244Z,0.60
2022-09-03T02:42:21.928Z,0.50
2022-09-03T02:44:51.582Z,0.60
2022-09-03T02:47:21.989Z,0.60
2022-09-03T02:49:51.428Z,0.50
2022-09-03T02:52:19.485Z,0.60
2022-09-03T02:54:47.506Z,0.60
2022-09-03T02:57:17.031Z,0.47
2022-09-03T02:59:51.827Z,0.60
2022-09-03T03:02:19.926Z,0.50
2022-09-03T03:04:47.982Z,0.52
2022-09-03T03:07:17.453Z,0.40
2022-09-03T03:09:46.108Z,0.63
2022-09-03T03:12:17.369Z,0.50
2022-09-03T03:14:45.379Z,0.60
2022-09-03T03:17:13.351Z,0.60
2022-09-03T03:19:41.385Z,0.50
2022-09-03T03:22:09.422Z,0.60
2022-09-03T03:24:39.307Z,0.60
2022-09-03T03:27:10.730Z,0.47
2022-09-03T03:29:39.620Z,0.60
2022-09-03T03:32:07.731Z,0.60
2022-09-03T03:34:35.780Z,0.40
2022-09-03T03:37:04.648Z,0.60
2022-09-03T03:39:32.814Z,0.52
2022-09-03T03:42:02.394Z,0.50
2022-09-03T03:44:30.753Z,0.50
2022-09-03T03:46:58.737Z,0.60
2022-09-03T03:49:26.839Z,0.70
2022-09-03T03:51:54.877Z,0.60
2022-09-03T03:54:23.011Z,0.60
2022-09-03T03:56:55.165Z,0.60
2022-09-03T03:59:25.213Z,0.55
2022-09-03T04:01:53.180Z,0.60
2022-09-03T04:04:21.152Z,0.57
2022-09-03T04:06:49.271Z,0.60
2022-09-03T04:09:17.267Z,0.50
2022-09-03T04:11:45.406Z,0.50
2022-09-03T04:14:13.457Z,0.50
2022-09-03T04:16:43.341Z,0.50
2022-09-03T04:19:14.376Z,0.60
2022-09-03T04:21:42.371Z,0.60
2022-09-03T04:24:10.395Z,0.60
2022-09-03T04:26:38.440Z,0.50
2022-09-03T04:29:07.071Z,0.50
2022-09-03T04:31:35.390Z,0.50
2022-09-03T04:34:06.571Z,0.60
2022-09-03T04:36:35.136Z,0.47
2022-09-03T04:39:03.355Z,0.60
2022-09-03T04:41:32.338Z,0.70
2022-09-03T04:44:00.686Z,0.57
2022-09-03T04:46:33.612Z,0.63
2022-09-03T04:49:02.333Z,0.60
2022-09-03T04:51:34.650Z,0.70
2022-09-03T04:54:03.108Z,0.60
2022-09-03T04:56:32.207Z,0.55
2022-09-03T04:59:01.342Z,0.45
2022-09-03T05:01:31.060Z,0.50
2022-09-03T05:03:59.147Z,0.57
2022-09-03T05:06:27.397Z,0.65
2022-09-03T05:08:56.861Z,0.50
2022-09-03T05:11:25.119Z,0.60
2022-09-03T05:13:53.836Z,0.60
2022-09-03T05:16:22.177Z,0.57
2022-09-03T05:18:52.893Z,0.65
2022-09-03T05:21:21.035Z,0.50
2022-09-03T05:23:50.436Z,0.63
2022-09-03T05:26:20.917Z,0.65
2022-09-03T05:28:49.059Z,0.68
2022-09-03T05:31:18.060Z,0.70
2022-09-03T05:33:47.027Z,0.70
2022-09-03T05:36:16.344Z,0.68
2022-09-03T05:38:44.525Z,0.75
2022-09-03T05:41:14.670Z,0.70
2022-09-03T05:43:44.140Z,0.57
2022-09-03T05:46:13.108Z,0.70
2022-09-03T05:48:41.608Z,0.63
2022-09-03T05:51:10.152Z,0.70
2022-09-03T05:53:39.290Z,0.70
2022-09-03T05:56:09.409Z,0.60
2022-09-03T05:58:39.402Z,0.60
2022-09-03T06:01:13.795Z,0.60
2022-09-03T06:03:42.524Z,0.88
2022-09-03T06:06:11.059Z,0.73
2022-09-03T06:08:39.457Z,0.60
2022-09-03T06:11:07.493Z,0.85
2022-09-03T06:13:36.107Z,0.70
2022-09-03T06:16:05.698Z,0.80
2022-09-03T06:18:35.111Z,0.60
2022-09-03T06:21:04.210Z,0.70
2022-09-03T06:23:32.507Z,0.63
2022-09-03T06:26:05.461Z,0.80
2022-09-03T06:28:34.982Z,0.60
2022-09-03T06:31:03.176Z,0.63
2022-09-03T06:33:32.019Z,0.70
2022-09-03T06:36:03.915Z,0.70
2022-09-03T06:38:36.470Z,0.60
2022-09-03T06:41:05.320Z,0.80
2022-09-03T06:43:34.006Z,0.60
2022-09-03T06:46:02.688Z,0.70
2022-09-03T06:48:32.149Z,0.77
2022-09-03T06:51:02.369Z,0.60
2022-09-03T06:53:32.091Z,0.70
2022-09-03T06:56:01.375Z,0.60
2022-09-03T06:58:30.266Z,0.50
2022-09-03T07:01:03.002Z,0.70
2022-09-03T07:03:31.283Z,0.60
2022-09-03T07:06:03.201Z,0.50
2022-09-03T07:08:32.936Z,0.52
2022-09-03T07:11:01.699Z,0.60
2022-09-03T07:13:29.690Z,0.63
2022-09-03T07:16:02.321Z,0.70
2022-09-03T07:18:30.415Z,0.68
2022-09-03T07:21:02.624Z,0.70
2022-09-03T07:23:31.278Z,0.63
2022-09-03T07:26:00.547Z,0.50
2022-09-03T07:28:28.711Z,0.50
2022-09-03T07:30:57.764Z,0.60
2022-09-03T07:33:25.785Z,0.60
2022-09-03T07:35:54.140Z,0.60
2022-09-03T07:38:24.349Z,0.50
2022-09-03T07:40:59.216Z,0.50
2022-09-03T07:43:28.013Z,0.68
2022-09-03T07:45:57.393Z,0.60
2022-09-03T07:48:25.651Z,0.60
2022-09-03T07:50:54.610Z,0.40
2022-09-03T07:53:24.976Z,0.52
2022-09-03T07:55:53.017Z,0.50
2022-09-03T07:58:23.095Z,0.50
2022-09-03T08:00:51.180Z,0.60
2022-09-03T08:03:19.232Z,0.68
2022-09-03T08:05:47.295Z,0.63
2022-09-03T08:08:15.646Z,0.60
2022-09-03T08:10:45.885Z,0.52
2022-09-03T08:13:13.885Z,0.50
2022-09-03T08:15:43.019Z,0.40
2022-09-03T08:18:11.333Z,0.50
2022-09-03T08:20:40.344Z,0.50
2022-09-03T08:23:08.689Z,0.50
2022-09-03T08:25:36.665Z,0.52
2022-09-03T08:28:06.181Z,0.50
2022-09-03T08:30:34.965Z,0.50
2022-09-03T08:33:04.948Z,0.50
2022-09-03T08:35:34.698Z,0.50
2022-09-03T08:38:05.792Z,0.50
2022-09-03T08:40:38.443Z,0.50
2022-09-03T08:43:10.792Z,0.60
2022-09-03T08:45:39.433Z,0.47
2022-09-03T08:48:09.521Z,0.60
2022-09-03T08:50:39.764Z,0.50
2022-09-03T08:53:11.504Z,0.50
2022-09-03T08:55:44.722Z,0.70
2022-09-03T08:58:15.541Z,0.50
2022-09-03T09:00:48.470Z,0.63
2022-09-03T09:03:34.921Z,0.60
2022-09-03T09:06:09.200Z,0.50
2022-09-03T09:08:40.194Z,0.50
2022-09-03T09:11:10.297Z,0.50
2022-09-03T09:13:44.342Z,0.50
2022-09-03T09:16:15.131Z,0.60
2022-09-03T09:18:49.596Z,0.60
2022-09-03T09:21:22.005Z,0.70
2022-09-03T09:23:52.072Z,0.70
2022-09-03T09:26:21.511Z,0.43
2022-09-03T09:28:53.951Z,0.52
2022-09-03T09:31:21.994Z,0.60
2022-09-03T09:33:52.517Z,0.50
2022-09-03T09:36:20.556Z,0.60
2022-09-03T09:38:49.772Z,0.40
2022-09-03T09:41:19.452Z,0.60
2022-09-03T09:43:49.047Z,0.70
2022-09-03T09:46:22.815Z,0.65
2022-09-03T09:48:52.292Z,0.77
2022-09-03T09:51:21.563Z,0.60
2022-09-03T09:53:49.846Z,0.65
2022-09-03T09:56:24.400Z,0.50
2022-09-03T10:01:25.881Z,0.60
2022-09-03T10:03:57.485Z,0.50
2022-09-03T10:06:43.084Z,0.70
2022-09-03T10:09:12.581Z,0.63
2022-09-03T10:11:42.711Z,0.60
2022-09-03T10:14:14.933Z,0.60
2022-09-03T10:16:49.035Z,0.43
2022-09-03T10:19:20.738Z,0.68
2022-09-03T10:21:52.221Z,0.60
2022-09-03T10:24:39.528Z,0.63
2022-09-03T10:27:10.453Z,0.60
2022-09-03T10:29:40.813Z,0.60
2022-09-03T10:32:23.066Z,0.60
2022-09-03T10:34:58.852Z,0.60
2022-09-03T10:37:30.643Z,0.60
2022-09-03T10:40:06.553Z,0.60
2022-09-03T10:42:39.893Z,0.60
2022-09-03T10:45:13.945Z,0.65
2022-09-03T10:48:04.353Z,0.70
2022-09-03T10:50:34.684Z,0.47
2022-09-03T10:53:08.894Z,0.60
2022-09-03T10:55:45.256Z,0.50
2022-09-03T10:58:24.758Z,0.60
2022-09-03T11:00:56.292Z,0.50
2022-09-03T11:03:45.095Z,0.68
2022-09-03T11:06:14.661Z,0.60
2022-09-03T11:08:44.357Z,0.50
2022-09-03T11:11:15.241Z,0.60
2022-09-03T11:13:46.170Z,0.60
2022-09-03T11:16:18.067Z,0.55
2022-09-03T11:18:50.073Z,0.60
2022-09-03T11:21:19.535Z,0.60
2022-09-03T11:23:49.029Z,0.70
2022-09-03T11:26:26.365Z,0.50
2022-09-03T11:28:57.629Z,0.60
2022-09-03T11:31:31.627Z,0.50
2022-09-03T11:34:02.901Z,0.60
2022-09-03T11:36:32.717Z,0.45
2022-09-03T11:39:01.589Z,0.60
2022-09-03T11:41:30.068Z,0.65
2022-09-03T11:44:02.487Z,0.60
2022-09-03T11:46:33.287Z,0.50
2022-09-03T11:49:13.488Z,0.60
2022-09-03T11:51:42.035Z,0.60
2022-09-03T11:54:26.085Z,0.60
2022-09-03T11:57:06.907Z,0.70
2022-09-03T11:59:34.922Z,0.47
2022-09-03T12:02:05.708Z,0.55
2022-09-03T12:04:37.055Z,0.60
2022-09-03T12:07:27.493Z,0.50
2022-09-03T12:10:01.931Z,0.60
2022-09-03T12:12:41.974Z,0.50
2022-09-03T12:15:14.373Z,0.50
2022-09-03T12:17:45.834Z,0.50
2022-09-03T12:20:15.875Z,0.70
2022-09-03T12:22:43.982Z,0.60
2022-09-03T12:25:13.360Z,0.50
2022-09-03T12:27:41.565Z,0.80
2022-09-03T12:30:17.599Z,0.68
2022-09-03T12:32:47.611Z,0.70
2022-09-03T12:38:09.375Z,0.50
2022-09-03T12:43:50.070Z,0.50
2022-09-03T12:46:18.512Z,0.70
2022-09-03T12:51:51.207Z,0.80
2022-09-03T12:54:21.005Z,0.70
2022-09-03T12:56:54.539Z,0.60
2022-09-03T12:59:22.626Z,0.50
2022-09-03T13:01:52.224Z,0.60
2022-09-03T13:04:21.365Z,0.60
2022-09-03T13:06:56.285Z,0.70
2022-09-03T13:09:25.026Z,0.60
2022-09-03T13:11:55.619Z,0.55
2022-09-03T13:14:24.831Z,0.80
2022-09-03T13:17:28.400Z,0.75
2022-09-03T13:20:13.509Z,0.60
2022-09-03T13:22:47.401Z,0.70
2022-09-03T13:25:17.517Z,0.80
2022-09-03T13:27:47.614Z,0.52
2022-09-03T13:30:17.311Z,0.80
2022-09-03T13:32:54.642Z,0.90
2022-09-03T13:35:28.340Z,0.55
2022-09-03T13:38:00.045Z,0.63
2022-09-03T13:40:33.378Z,0.70
2022-09-03T13:43:06.538Z,0.80
2022-09-03T13:45:39.394Z,0.63
2022-09-03T13:48:30.344Z,0.82
2022-09-03T13:51:03.996Z,0.85
2022-09-03T13:53:41.333Z,0.70
2022-09-03T13:56:17.819Z,0.63
2022-09-03T13:58:48.222Z,0.60
2022-09-03T14:01:20.438Z,0.70
2022-09-03T14:03:50.942Z,0.70
2022-09-03T14:06:26.504Z,0.70
2022-09-03T14:09:03.465Z,0.65
2022-09-03T14:11:32.794Z,0.60
2022-09-03T14:14:10.760Z,0.80
2022-09-03T14:16:40.736Z,0.70
2022-09-03T14:19:12.446Z,0.55
2022-09-03T14:21:42.508Z,0.73
2022-09-03T14:24:16.452Z,0.70
2022-09-03T14:26:51.672Z,0.60
2022-09-03T14:29:19.657Z,0.68
2022-09-03T14:32:15.256Z,0.90
2022-09-03T14:34:52.316Z,0.77
2022-09-03T14:37:32.032Z,0.70
2022-09-03T14:40:06.305Z,0.60
2022-09-03T14:42:52.611Z,0.70
2022-09-03T14:45:29.446Z,0.80
2022-09-03T14:48:08.585Z,0.65
2022-09-03T14:50:55.174Z,0.68
2022-09-03T14:53:32.979Z,0.60
2022-09-03T14:56:14.236Z,0.70
2022-09-03T14:58:53.467Z,0.70
2022-09-03T15:01:29.509Z,0.70
2022-09-03T15:04:28.756Z,0.70
2022-09-03T15:07:16.178Z,0.80
2022-09-03T15:09:46.498Z,0.70
2022-09-03T15:12:20.726Z,0.98
2022-09-03T15:14:53.995Z,0.80
2022-09-03T15:17:33.364Z,0.70
2022-09-03T15:20:11.795Z,0.80
2022-09-03T15:22:50.224Z,0.70
2022-09-03T15:25:21.815Z,0.73
2022-09-03T15:27:58.584Z,0.80
2022-09-03T15:30:26.549Z,0.70
2022-09-03T15:33:02.137Z,0.80
2022-09-03T15:35:44.677Z,0.68
2022-09-03T15:38:13.977Z,0.75
2022-09-03T15:40:44.101Z,0.77
2022-09-03T15:43:19.467Z,0.70
2022-09-03T15:45:57.570Z,0.70
2022-09-03T15:48:32.111Z,0.80
2022-09-03T15:51:08.173Z,0.77
2022-09-03T15:53:37.789Z,0.80
2022-09-03T15:56:28.976Z,0.77
2022-09-03T15:59:01.431Z,0.70
2022-09-03T16:01:36.475Z,0.70
2022-09-03T16:04:10.361Z,0.80
2022-09-03T16:06:45.790Z,0.80
2022-09-03T16:09:21.579Z,0.90
2022-09-03T16:11:53.740Z,0.93
2022-09-03T16:14:26.588Z,0.80
2022-09-03T16:16:59.060Z,0.80
2022-09-03T16:19:29.715Z,0.80
2022-09-03T16:22:00.272Z,0.82
2022-09-03T16:24:32.852Z,0.70
2022-09-03T16:27:02.421Z,0.98
2022-09-03T16:29:31.976Z,0.73
2022-09-03T16:32:14.129Z,0.90
2022-09-03T16:34:46.843Z,0.95
2022-09-03T16:37:18.979Z,0.90
2022-09-03T16:39:52.276Z,0.82
2022-09-03T16:42:24.930Z,0.60
2022-09-03T16:45:00.987Z,0.95
2022-09-03T16:47:34.247Z,0.88
2022-09-03T16:50:09.367Z,0.75
2022-09-03T16:52:42.604Z,0.80
2022-09-03T16:55:18.750Z,0.80
2022-09-03T16:57:54.992Z,0.70
2022-09-03T17:00:24.447Z,0.90
2022-09-03T17:03:12.415Z,0.88
2022-09-03T17:06:05.978Z,0.90
2022-09-03T17:08:37.546Z,0.77
2022-09-03T17:11:13.172Z,0.95
2022-09-03T17:13:57.869Z,0.80
2022-09-03T17:16:33.327Z,1.00
2022-09-03T17:19:03.813Z,0.77
2022-09-03T17:21:38.261Z,1.00
2022-09-03T17:24:19.633Z,1.10
2022-09-03T17:26:55.957Z,0.80
2022-09-03T17:29:35.227Z,0.98
2022-09-03T17:32:10.891Z,1.00
2022-09-03T17:34:44.737Z,1.00
2022-09-03T17:37:18.051Z,0.90
2022-09-03T17:40:04.289Z,1.08
2022-09-03T17:42:34.717Z,1.08
2022-09-03T17:45:09.679Z,1.08
2022-09-03T17:48:06.634Z,0.90
2022-09-03T17:50:36.652Z,1.10
2022-09-03T17:53:07.935Z,1.00
2022-09-03T17:55:37.427Z,1.10
2022-09-03T17:58:10.114Z,1.10
2022-09-03T18:00:39.879Z,1.20
2022-09-03T18:03:12.921Z,1.10
2022-09-03T18:05:45.199Z,1.17
2022-09-03T18:08:15.636Z,1.30
2022-09-03T18:10:46.300Z,1.10
2022-09-03T18:13:18.630Z,1.25
2022-09-03T18:15:54.361Z,1.08
2022-09-03T18:18:27.347Z,1.20
2022-09-03T18:21:31.745Z,1.50
2022-09-03T18:24:19.848Z,1.53
2022-09-03T18:27:06.561Z,1.20
2022-09-03T18:29:54.598Z,1.50
2022-09-03T18:32:40.067Z,1.40
2022-09-03T18:35:27.803Z,1.45
2022-09-03T18:38:13.030Z,1.35
2022-09-03T18:41:01.668Z,1.50
2022-09-03T18:43:50.013Z,1.50
2022-09-03T18:49:44.821Z,1.70
2022-09-03T18:52:36.296Z,1.48
2022-09-03T18:55:26.452Z,1.35
2022-09-03T18:58:18.154Z,1.45
2022-09-03T19:01:06.483Z,1.55
2022-09-03T19:03:59.566Z,1.50
2022-09-03T19:06:48.931Z,1.50
2022-09-03T19:09:40.032Z,1.63
2022-09-03T19:12:31.336Z,1.70
2022-09-03T19:15:19.149Z,1.50
2022-09-03T19:18:24.664Z,1.40
2022-09-03T19:21:14.207Z,1.52
2022-09-03T19:23:59.940Z,1.58
2022-09-03T19:26:50.482Z,1.48
2022-09-03T19:29:39.049Z,1.70
2022-09-03T19:32:26.730Z,1.65
2022-09-03T19:35:23.067Z,1.42
2022-09-03T19:38:13.504Z,1.50
2022-09-03T19:41:08.977Z,1.65
2022-09-03T19:43:59.875Z,1.48
2022-09-03T19:46:49.131Z,1.55
2022-09-03T19:49:37.603Z,1.30
2022-09-03T19:52:25.992Z,1.35
2022-09-03T19:55:13.026Z,1.30
2022-09-03T19:57:58.344Z,1.50
2022-09-03T20:00:45.470Z,1.30
2022-09-03T20:03:31.108Z,1.52
2022-09-03T20:06:16.714Z,1.30
2022-09-03T20:09:02.091Z,1.25
2022-09-03T20:11:30.230Z,1.20
2022-09-03T20:14:16.693Z,1.25
2022-09-03T20:17:01.735Z,1.27
2022-09-03T20:19:33.992Z,1.38
2022-09-03T20:22:05.413Z,1.33
2022-09-03T20:24:40.072Z,1.30
2022-09-03T20:27:15.279Z,1.23
2022-09-03T20:29:54.684Z,1.50
2022-09-03T20:32:47.053Z,1.40
2022-09-03T20:35:17.510Z,1.45
2022-09-03T20:37:48.322Z,1.35
2022-09-03T20:40:20.706Z,1.13
2022-09-03T20:43:24.586Z,1.25
2022-09-03T20:45:59.478Z,1.27
2022-09-03T20:48:29.499Z,1.10
2022-09-03T20:51:01.202Z,1.35
2022-09-03T20:53:44.534Z,1.10
2022-09-03T20:56:16.346Z,1.10
2022-09-03T20:58:46.537Z,1.25
2022-09-03T21:01:17.073Z,1.48
2022-09-03T21:03:48.993Z,1.27
2022-09-03T21:06:23.673Z,1.30
2022-09-03T21:09:02.114Z,1.08
2022-09-03T21:11:37.718Z,1.27
2022-09-03T21:14:14.700Z,1.17
2022-09-03T21:16:47.462Z,1.17
2022-09-03T21:19:21.060Z,1.38
2022-09-03T21:21:53.726Z,1.20
2022-09-03T21:24:22.817Z,1.00
2022-09-03T21:27:00.383Z,1.15
2022-09-03T21:29:31.319Z,0.90
2022-09-03T21:32:03.118Z,1.10
2022-09-03T21:34:34.564Z,1.13
2022-09-03T21:37:02.607Z,1.00
2022-09-03T21:39:32.883Z,1.00
2022-09-03T21:42:04.431Z,1.08
2022-09-03T21:44:45.236Z,1.15
2022-09-03T21:47:14.677Z,1.00
2022-09-03T21:49:56.062Z,1.17
2022-09-03T21:52:25.566Z,1.20
2022-09-03T21:54:56.773Z,1.20
2022-09-03T21:57:29.386Z,1.10
2022-09-03T22:00:21.879Z,1.20
2022-09-03T22:02:50.759Z,1.20
2022-09-03T22:05:20.207Z,1.13
2022-09-03T22:08:04.472Z,1.13
2022-09-03T22:10:33.761Z,0.90
2022-09-03T22:13:09.300Z,1.10
2022-09-03T22:15:38.118Z,1.17
2022-09-03T22:18:07.610Z,1.10
2022-09-03T22:20:37.041Z,1.27
2022-09-03T22:23:07.480Z,1.00
2022-09-03T22:25:43.456Z,1.05
2022-09-03T22:28:13.178Z,1.08
2022-09-03T22:30:48.478Z,1.38
2022-09-03T22:33:19.507Z,1.15
2022-09-03T22:36:04.791Z,0.98
2022-09-03T22:38:42.875Z,0.90
2022-09-03T22:41:17.296Z,1.00
2022-09-03T22:43:47.056Z,0.90
2022-09-03T22:46:15.428Z,1.15
2022-09-03T22:49:12.821Z,1.10
2022-09-03T22:51:48.609Z,1.27
2022-09-03T22:54:23.554Z,1.20
2022-09-03T22:56:51.590Z,1.20
2022-09-03T22:59:23.851Z,1.15
2022-09-03T23:01:57.369Z,1.20
2022-09-03T23:04:29.317Z,1.00
2022-09-03T23:07:01.087Z,1.20
2022-09-03T23:09:31.271Z,1.20
2022-09-03T23:12:01.327Z,1.27
2022-09-03T23:14:30.840Z,1.20
2022-09-03T23:16:59.996Z,1.13
2022-09-03T23:19:30.559Z,1.20
2022-09-03T23:22:01.479Z,1.25
2022-09-03T23:24:30.294Z,1.20
2022-09-03T23:26:58.333Z,1.20
2022-09-03T23:29:29.141Z,1.10
2022-09-03T23:31:57.669Z,1.30
2022-09-03T23:34:25.815Z,1.23
2022-09-03T23:37:32.299Z,1.10
2022-09-03T23:40:02.938Z,1.23
2022-09-03T23:42:37.874Z,1.10
2022-09-03T23:45:15.569Z,1.20
2022-09-03T23:47:47.671Z,1.40
2022-09-03T23:50:25.291Z,1.10
2022-09-03T23:53:13.525Z,1.23
2022-09-03T23:55:48.384Z,1.33
2022-09-03T23:58:29.909Z,1.20
